createdAt,value
2018-05-29T00:00:40.566Z,5.95
2018-05-29T00:03:08.123Z,6.05
2018-05-29T00:05:38.361Z,6.50
2018-05-29T00:08:06.604Z,6.90
2018-05-29T00:10:34.216Z,5.95
2018-05-29T00:13:02.567Z,5.90
2018-05-29T00:15:30.266Z,6.32
2018-05-29T00:17:58.024Z,6.45
2018-05-29T00:20:25.671Z,6.95
2018-05-29T00:22:54.023Z,6.15
2018-05-29T00:25:21.810Z,6.35
2018-05-29T00:27:50.479Z,6.10
2018-05-29T00:30:18.168Z,6.50
2018-05-29T00:32:46.515Z,6.18
2018-05-29T00:35:14.246Z,6.22
2018-05-29T00:37:41.845Z,7.00
2018-05-29T00:40:09.523Z,6.72
2018-05-29T00:42:37.883Z,6.70
2018-05-29T00:45:06.519Z,6.28
2018-05-29T00:47:34.205Z,6.75
2018-05-29T00:50:02.620Z,6.12
2018-05-29T00:52:30.983Z,6.50
2018-05-29T00:55:10.787Z,6.85
2018-05-29T00:57:38.400Z,6.40
2018-05-29T01:00:06.172Z,6.62
2018-05-29T01:02:36.395Z,6.80
2018-05-29T01:05:04.051Z,7.10
2018-05-29T01:07:32.563Z,6.35
2018-05-29T01:10:00.269Z,6.78
2018-05-29T01:12:28.098Z,6.30
2018-05-29T01:14:55.740Z,7.03
2018-05-29T01:17:24.269Z,6.35
2018-05-29T01:19:53.113Z,7.00
2018-05-29T01:22:21.784Z,6.47
2018-05-29T01:24:50.543Z,6.70
2018-05-29T01:27:18.288Z,7.07
2018-05-29T01:29:45.903Z,6.45
2018-05-29T01:32:14.417Z,6.70
2018-05-29T01:34:42.160Z,7.32
2018-05-29T01:37:09.991Z,7.07
2018-05-29T01:39:38.693Z,7.00
2018-05-29T01:42:07.199Z,6.80
2018-05-29T01:44:34.926Z,6.70
2018-05-29T01:47:02.681Z,7.03
2018-05-29T01:49:30.271Z,6.45
2018-05-29T01:51:58.679Z,7.15
2018-05-29T01:54:26.307Z,7.43
2018-05-29T01:56:54.760Z,7.28
2018-05-29T01:59:22.324Z,7.10
2018-05-29T02:01:50.167Z,7.00
2018-05-29T02:04:17.799Z,7.20
2018-05-29T02:06:46.231Z,7.35
2018-05-29T02:09:14.912Z,7.30
2018-05-29T02:11:42.727Z,7.30
2018-05-29T02:14:10.366Z,7.45
2018-05-29T02:16:38.825Z,7.35
2018-05-29T02:19:06.544Z,8.00
2018-05-29T02:21:34.140Z,7.40
2018-05-29T02:24:01.828Z,7.18
2018-05-29T02:26:30.296Z,7.28
2018-05-29T02:28:58.138Z,8.15
2018-05-29T02:31:25.808Z,7.68
2018-05-29T02:33:53.404Z,7.30
2018-05-29T02:36:21.092Z,7.70
2018-05-29T02:38:48.708Z,7.85
2018-05-29T02:41:16.257Z,7.55
2018-05-29T02:43:44.141Z,7.97
2018-05-29T02:46:12.636Z,7.65
2018-05-29T02:48:40.196Z,7.50
2018-05-29T02:51:07.760Z,8.35
2018-05-29T02:53:35.460Z,7.87
2018-05-29T02:56:03.792Z,7.68
2018-05-29T02:58:31.389Z,7.50
2018-05-29T03:00:59.097Z,7.55
2018-05-29T03:03:27.523Z,8.00
2018-05-29T03:05:55.101Z,7.53
2018-05-29T03:08:22.684Z,7.57
2018-05-29T03:10:50.635Z,8.15
2018-05-29T03:13:18.214Z,8.38
2018-05-29T03:15:45.772Z,8.45
2018-05-29T03:18:13.476Z,8.07
2018-05-29T03:20:41.044Z,8.45
2018-05-29T03:23:08.599Z,8.38
2018-05-29T03:25:36.413Z,8.43
2018-05-29T03:28:03.987Z,8.45
2018-05-29T03:30:31.549Z,7.72
2018-05-29T03:32:59.936Z,8.15
2018-05-29T03:35:28.285Z,8.15
2018-05-29T03:37:55.872Z,8.85
2018-05-29T03:40:24.224Z,8.63
2018-05-29T03:42:52.100Z,8.63
2018-05-29T03:45:20.607Z,8.80
2018-05-29T03:47:48.175Z,8.85
2018-05-29T03:50:15.736Z,8.65
2018-05-29T03:52:43.532Z,8.63
2018-05-29T03:55:11.108Z,8.88
2018-05-29T03:57:38.714Z,8.40
2018-05-29T04:00:06.296Z,8.80
2018-05-29T04:08:21.469Z,9.23
2018-05-29T04:10:49.031Z,9.05
2018-05-29T04:13:16.605Z,8.43
2018-05-29T04:15:44.274Z,9.80
2018-05-29T04:18:11.844Z,8.70
2018-05-29T04:20:39.415Z,9.88
2018-05-29T04:23:07.242Z,9.02
2018-05-29T04:25:35.210Z,9.00
2018-05-29T04:28:02.852Z,9.52
2018-05-29T04:30:31.192Z,9.55
2018-05-29T04:32:59.021Z,9.43
2018-05-29T04:35:26.600Z,9.60
2018-05-29T04:37:54.195Z,9.43
2018-05-29T04:40:21.868Z,9.43
2018-05-29T04:42:50.308Z,9.57
2018-05-29T04:45:17.868Z,9.55
2018-05-29T04:47:45.486Z,9.77
2018-05-29T04:50:14.652Z,8.90
2018-05-29T04:52:42.325Z,10.15
2018-05-29T04:55:09.946Z,9.48
2018-05-29T04:57:37.541Z,9.55
2018-05-29T05:00:05.146Z,9.23
2018-05-29T05:02:33.108Z,9.07
2018-05-29T05:05:00.645Z,9.43
2018-05-29T05:07:29.168Z,9.50
2018-05-29T05:09:57.687Z,9.98
2018-05-29T05:12:25.349Z,9.30
2018-05-29T05:14:52.927Z,9.65
2018-05-29T05:17:21.617Z,9.38
2018-05-29T05:19:50.277Z,9.68
2018-05-29T05:22:17.940Z,9.52
2018-05-29T05:24:45.520Z,10.00
2018-05-29T05:27:13.993Z,10.50
2018-05-29T05:29:42.335Z,11.35
2018-05-29T05:32:09.933Z,10.05
2018-05-29T05:34:38.289Z,10.18
2018-05-29T05:37:06.233Z,9.90
2018-05-29T05:39:33.811Z,10.07
2018-05-29T05:42:01.413Z,9.82
2018-05-29T05:44:29.058Z,10.82
2018-05-29T05:46:57.432Z,9.63
2018-05-29T05:49:25.797Z,10.68
2018-05-29T05:51:53.398Z,10.40
2018-05-29T05:54:21.225Z,9.88
2018-05-29T05:56:48.820Z,9.77
2018-05-29T05:59:16.392Z,10.50
2018-05-29T06:01:44.304Z,10.38
2018-05-29T06:04:11.881Z,10.43
2018-05-29T06:06:40.255Z,11.20
2018-05-29T06:09:08.598Z,11.35
2018-05-29T06:11:36.435Z,11.40
2018-05-29T06:14:04.029Z,10.77
2018-05-29T06:16:32.144Z,10.77
2018-05-29T06:19:00.521Z,10.90
2018-05-29T06:21:29.121Z,11.02
2018-05-29T06:23:56.703Z,11.18
2018-05-29T06:26:24.279Z,11.10
2018-05-29T06:28:52.748Z,10.52
2018-05-29T06:31:20.433Z,10.20
2018-05-29T06:33:48.028Z,10.73
2018-05-29T06:36:16.370Z,10.20
2018-05-29T06:38:44.290Z,11.48
2018-05-29T06:41:11.915Z,11.00
2018-05-29T06:43:40.265Z,11.15
2018-05-29T06:46:07.895Z,11.68
2018-05-29T06:48:36.368Z,11.20
2018-05-29T06:51:04.752Z,11.52
2018-05-29T06:53:33.091Z,11.30
2018-05-29T06:56:00.677Z,11.93
2018-05-29T06:58:29.272Z,11.23
2018-05-29T07:00:58.027Z,11.00
2018-05-29T07:03:26.369Z,11.30
2018-05-29T07:05:53.976Z,12.15
2018-05-29T07:08:21.773Z,11.35
2018-05-29T07:10:49.404Z,11.20
2018-05-29T07:13:17.000Z,11.02
2018-05-29T07:15:45.763Z,10.82
2018-05-29T07:18:14.366Z,11.40
2018-05-29T07:20:42.009Z,11.02
2018-05-29T07:23:10.349Z,11.65
2018-05-29T07:25:37.929Z,11.55
2018-05-29T07:28:05.568Z,11.45
2018-05-29T07:30:33.148Z,11.95
2018-05-29T07:33:00.726Z,11.73
2018-05-29T07:35:29.172Z,11.85
2018-05-29T07:37:56.760Z,12.43
2018-05-29T07:40:25.104Z,11.80
2018-05-29T07:42:52.691Z,12.05
2018-05-29T07:45:20.811Z,11.90
2018-05-29T07:47:48.387Z,11.82
2018-05-29T07:50:15.986Z,11.75
2018-05-29T07:52:44.494Z,11.60
2018-05-29T07:55:12.079Z,11.80
2018-05-29T07:57:39.656Z,11.80
2018-05-29T08:00:07.462Z,12.20
2018-05-29T08:02:35.422Z,11.82
2018-05-29T08:05:02.993Z,12.57
2018-05-29T08:07:30.616Z,12.57
2018-05-29T08:09:59.208Z,12.52
2018-05-29T08:12:26.808Z,12.32
2018-05-29T08:14:54.395Z,11.93
2018-05-29T08:17:22.231Z,12.35
2018-05-29T08:19:49.819Z,12.23
2018-05-29T08:22:17.441Z,11.93
2018-05-29T08:24:45.032Z,12.25
2018-05-29T08:27:13.539Z,12.37
2018-05-29T08:29:41.121Z,12.07
2018-05-29T08:32:08.729Z,12.27
2018-05-29T08:34:37.482Z,12.13
2018-05-29T08:37:05.200Z,11.20
2018-05-29T08:39:32.793Z,13.20
2018-05-29T08:42:00.372Z,12.13
2018-05-29T08:44:28.096Z,11.75
2018-05-29T08:46:55.668Z,12.32
2018-05-29T08:49:23.257Z,11.88
2018-05-29T08:51:51.676Z,12.10
2018-05-29T08:54:20.259Z,12.57
2018-05-29T08:56:48.850Z,12.52
2018-05-29T08:59:16.402Z,12.00
2018-05-29T09:01:44.964Z,12.32
2018-05-29T09:04:13.397Z,12.02
2018-05-29T09:06:41.924Z,11.95
2018-05-29T09:09:10.283Z,13.25
2018-05-29T09:11:37.875Z,13.00
2018-05-29T09:14:06.419Z,12.52
2018-05-29T09:16:34.000Z,12.65
2018-05-29T09:19:01.584Z,13.15
2018-05-29T09:21:29.306Z,12.32
2018-05-29T09:23:56.908Z,12.60
2018-05-29T09:26:24.497Z,12.75
2018-05-29T09:28:52.075Z,12.05
2018-05-29T09:31:19.656Z,12.95
2018-05-29T09:33:47.244Z,13.05
2018-05-29T09:36:15.605Z,12.65
2018-05-29T09:38:43.383Z,12.57
2018-05-29T09:41:11.750Z,13.18
2018-05-29T09:43:39.336Z,13.18
2018-05-29T09:46:07.852Z,13.32
2018-05-29T09:48:35.544Z,12.80
2018-05-29T09:51:03.117Z,13.20
2018-05-29T09:53:30.688Z,12.35
2018-05-29T09:55:59.072Z,13.50
2018-05-29T09:58:28.636Z,12.27
2018-05-29T10:00:56.217Z,12.73
2018-05-29T10:03:23.818Z,13.25
2018-05-29T10:05:52.300Z,12.85
2018-05-29T10:08:20.876Z,13.50
2018-05-29T10:10:48.547Z,12.73
2018-05-29T10:13:16.931Z,12.68
2018-05-29T10:15:45.336Z,13.55
2018-05-29T10:18:13.504Z,12.60
2018-05-29T10:20:41.085Z,12.43
2018-05-29T10:23:08.784Z,12.57
2018-05-29T10:25:36.446Z,12.45
2018-05-29T10:28:04.798Z,12.18
2018-05-29T10:30:32.369Z,13.05
2018-05-29T10:32:59.963Z,12.95
2018-05-29T10:35:27.626Z,13.07
2018-05-29T10:37:55.263Z,12.80
2018-05-29T10:40:22.847Z,13.07
2018-05-29T10:42:50.526Z,11.93
2018-05-29T10:45:18.101Z,13.00
2018-05-29T10:47:45.689Z,13.25
2018-05-29T10:50:13.489Z,13.00
2018-05-29T10:52:41.089Z,12.95
2018-05-29T10:55:08.740Z,11.48
2018-05-29T10:57:36.337Z,12.25
2018-05-29T11:00:03.920Z,12.65
2018-05-29T11:02:31.508Z,13.65
2018-05-29T11:04:59.118Z,13.35
2018-05-29T11:07:26.704Z,13.00
2018-05-29T11:09:54.276Z,12.20
2018-05-29T11:12:21.995Z,12.95
2018-05-29T11:14:49.598Z,13.00
2018-05-29T11:17:17.168Z,11.93
2018-05-29T11:19:45.529Z,11.63
2018-05-29T11:22:13.328Z,12.13
2018-05-29T11:24:40.908Z,12.57
2018-05-29T11:27:08.493Z,11.45
2018-05-29T11:29:36.546Z,11.35
2018-05-29T11:32:04.128Z,12.10
2018-05-29T11:34:31.810Z,12.57
2018-05-29T11:36:59.476Z,12.07
2018-05-29T11:39:27.080Z,12.13
2018-05-29T11:41:54.661Z,11.05
2018-05-29T11:44:23.004Z,11.38
2018-05-29T11:46:50.977Z,12.02
2018-05-29T11:49:18.556Z,12.00
2018-05-29T11:51:46.136Z,11.32
2018-05-29T11:54:14.060Z,12.13
2018-05-29T11:56:42.413Z,12.63
2018-05-29T11:59:10.012Z,12.65
2018-05-29T12:01:38.413Z,10.90
2018-05-29T12:04:06.556Z,11.07
2018-05-29T12:06:34.164Z,11.48
2018-05-29T12:09:01.801Z,12.05
2018-05-29T12:11:30.155Z,11.20
2018-05-29T12:13:57.737Z,11.40
2018-05-29T12:16:25.358Z,10.93
2018-05-29T12:18:52.933Z,11.80
2018-05-29T12:21:20.704Z,11.38
2018-05-29T12:23:48.292Z,11.82
2018-05-29T12:26:15.885Z,11.30
2018-05-29T12:28:43.786Z,10.30
2018-05-29T12:31:11.361Z,11.80
2018-05-29T12:33:38.945Z,11.90
2018-05-29T12:36:07.036Z,12.02
2018-05-29T12:38:34.653Z,11.00
2018-05-29T12:41:02.247Z,10.80
2018-05-29T12:43:29.845Z,11.38
2018-05-29T12:45:58.276Z,10.95
2018-05-29T12:48:26.612Z,11.32
2018-05-29T12:50:54.190Z,11.10
2018-05-29T12:53:22.567Z,10.95
2018-05-29T12:55:50.107Z,12.13
2018-05-29T12:58:17.680Z,10.80
2018-05-29T13:00:45.269Z,11.43
2018-05-29T13:03:12.854Z,11.75
2018-05-29T13:05:40.427Z,11.15
2018-05-29T13:08:08.012Z,10.68
2018-05-29T13:10:35.592Z,10.38
2018-05-29T13:13:03.173Z,10.48
2018-05-29T13:15:30.752Z,10.68
2018-05-29T13:17:58.357Z,11.73
2018-05-29T13:20:25.925Z,10.90
2018-05-29T13:22:53.505Z,10.57
2018-05-29T13:25:21.124Z,10.93
2018-05-29T13:27:48.775Z,10.88
2018-05-29T13:30:17.060Z,10.63
2018-05-29T13:32:45.437Z,10.98
2018-05-29T13:35:13.333Z,10.18
2018-05-29T13:37:40.891Z,10.35
2018-05-29T13:40:08.484Z,10.07
2018-05-29T13:42:36.201Z,10.65
2018-05-29T13:45:03.787Z,10.55
2018-05-29T13:53:46.362Z,10.93
2018-05-29T13:56:14.072Z,10.68
2018-05-29T13:58:41.664Z,10.60
2018-05-29T14:01:09.236Z,10.82
2018-05-29T14:03:36.980Z,10.65
2018-05-29T14:06:04.593Z,10.45
2018-05-29T14:08:32.944Z,10.43
2018-05-29T14:11:00.513Z,9.90
2018-05-29T14:13:28.344Z,10.57
2018-05-29T14:15:55.935Z,10.77
2018-05-29T14:18:23.505Z,10.25
2018-05-29T14:20:51.236Z,10.93
2018-05-29T14:23:19.585Z,10.38
2018-05-29T14:47:34.557Z,8.38
2018-05-29T14:50:06.768Z,8.75
2018-05-29T14:55:38.225Z,9.55
2018-05-29T14:58:05.896Z,10.05
2018-05-29T15:00:34.183Z,9.93
2018-05-29T15:03:01.915Z,8.98
2018-05-29T15:05:29.602Z,9.60
2018-05-29T15:07:58.013Z,8.27
2018-05-29T15:10:25.719Z,8.40
2018-05-29T15:12:53.364Z,8.15
2018-05-29T15:15:21.301Z,7.70
2018-05-29T15:17:48.930Z,7.87
2018-05-29T15:20:16.563Z,6.60
2018-05-29T15:22:45.681Z,7.00
2018-05-29T15:25:14.162Z,6.47
2018-05-29T15:27:42.604Z,5.80
2018-05-29T15:30:10.990Z,5.78
2018-05-29T15:32:38.778Z,5.45
2018-05-29T15:41:11.388Z,5.07
2018-05-29T15:43:39.733Z,5.65
2018-05-29T15:46:07.421Z,5.30
2018-05-29T15:48:34.979Z,5.25
2018-05-29T15:51:02.536Z,5.35
2018-05-29T15:53:30.095Z,5.35
2018-05-29T15:55:57.655Z,6.20
2018-05-29T15:58:26.039Z,6.82
2018-05-29T16:00:53.596Z,5.60
2018-05-29T16:03:21.220Z,6.22
2018-05-29T16:05:48.819Z,6.68
2018-05-29T16:08:16.375Z,6.10
2018-05-29T16:10:45.131Z,6.85
2018-05-29T16:13:12.697Z,6.97
2018-05-29T16:15:40.516Z,8.30
2018-05-29T16:18:08.083Z,9.15
2018-05-29T16:20:36.673Z,8.35
2018-05-29T16:23:05.004Z,8.38
2018-05-29T16:25:32.604Z,9.50
2018-05-29T16:28:00.886Z,10.63
2018-05-29T16:30:30.091Z,11.27
2018-05-29T16:32:58.803Z,9.13
2018-05-29T16:35:26.368Z,10.05
2018-05-29T16:37:53.937Z,10.57
2018-05-29T16:40:21.518Z,10.40
2018-05-29T16:42:49.087Z,9.68
2018-05-29T16:45:16.674Z,10.57
2018-05-29T16:47:46.084Z,11.07
2018-05-29T16:50:14.431Z,10.00
2018-05-29T16:52:42.020Z,10.98
2018-05-29T16:55:10.362Z,10.30
2018-05-29T16:57:37.963Z,10.77
2018-05-29T17:00:06.488Z,9.70
2018-05-29T17:02:34.064Z,10.55
2018-05-29T17:05:01.640Z,10.00
2018-05-29T17:07:30.044Z,10.35
2018-05-29T17:09:58.459Z,10.95
2018-05-29T17:12:26.034Z,10.65
2018-05-29T17:14:53.627Z,11.43
2018-05-29T17:17:21.744Z,11.10
2018-05-29T17:19:49.371Z,12.90
2018-05-29T17:22:16.964Z,13.05
2018-05-29T17:24:44.610Z,12.43
2018-05-29T17:27:13.055Z,12.25
2018-05-29T17:29:40.661Z,13.52
2018-05-29T17:32:09.012Z,13.18
2018-05-29T17:34:36.662Z,13.98
2018-05-29T17:37:04.278Z,13.45
2018-05-29T17:39:31.899Z,13.57
2018-05-29T17:41:59.463Z,14.40
2018-05-29T17:44:27.023Z,14.73
2018-05-29T17:46:54.578Z,15.03
2018-05-29T17:49:22.315Z,15.17
2018-05-29T17:51:49.897Z,14.70
2018-05-29T17:54:17.436Z,15.20
2018-05-29T17:56:45.102Z,14.30
2018-05-29T17:59:12.635Z,13.87
2018-05-29T18:01:40.996Z,14.83
2018-05-29T18:04:08.567Z,13.30
2018-05-29T18:06:37.676Z,13.53
2018-05-29T18:09:06.135Z,13.30
2018-05-29T18:11:33.812Z,12.63
2018-05-29T18:14:02.191Z,12.67
2018-05-29T18:16:30.590Z,12.87
2018-05-29T18:18:58.167Z,12.13
2018-05-29T18:21:25.703Z,11.87
2018-05-29T18:23:53.396Z,11.83
2018-05-29T18:26:21.614Z,11.40
2018-05-29T18:28:49.147Z,10.80
2018-05-29T18:31:16.770Z,10.43
2018-05-29T18:33:44.315Z,10.27
2018-05-29T18:36:12.626Z,10.83
2018-05-29T18:38:40.175Z,12.10
2018-05-29T18:41:08.496Z,12.47
2018-05-29T18:43:37.079Z,11.97
2018-05-29T18:46:04.616Z,11.60
2018-05-29T18:48:32.184Z,11.77
2018-05-29T18:50:59.927Z,11.33
2018-05-29T18:53:27.475Z,11.63
2018-05-29T18:55:55.311Z,10.97
2018-05-29T18:58:22.888Z,11.80
2018-05-29T19:00:51.781Z,12.77
2018-05-29T19:03:20.096Z,12.67
2018-05-29T19:05:47.676Z,11.83
2018-05-29T19:08:15.231Z,12.70
2018-05-29T19:10:42.817Z,12.03
2018-05-29T19:13:10.493Z,10.87
2018-05-29T19:15:38.091Z,11.37
2018-05-29T19:18:05.657Z,11.43
2018-05-29T19:20:33.208Z,14.17
2018-05-29T19:23:00.829Z,13.53
2018-05-29T19:25:28.316Z,16.33
2018-05-29T19:27:55.866Z,15.80
2018-05-29T19:30:24.183Z,18.77
2018-05-29T19:32:52.912Z,16.60
2018-05-29T19:35:21.334Z,15.17
2018-05-29T19:37:48.835Z,15.53
2018-05-29T19:40:16.396Z,16.43
2018-05-29T19:42:44.456Z,17.23
2018-05-29T19:45:12.044Z,17.60
2018-05-29T19:47:39.583Z,17.30
2018-05-29T19:50:07.216Z,17.87
2018-05-29T19:52:34.815Z,18.60
2018-05-29T19:55:02.459Z,20.10
2018-05-29T19:57:30.799Z,19.73
2018-05-29T19:59:58.378Z,20.03
2018-05-29T20:02:27.268Z,22.70
2018-05-29T20:04:54.807Z,21.30
2018-05-29T20:07:23.139Z,22.10
2018-05-29T20:09:50.683Z,20.00
2018-05-29T20:12:18.260Z,20.43
2018-05-29T20:14:45.803Z,20.47
2018-05-29T20:17:13.999Z,18.77
2018-05-29T20:19:41.535Z,19.27
2018-05-29T20:22:09.094Z,18.03
2018-05-29T20:24:36.737Z,17.87
2018-05-29T20:27:04.301Z,17.60
2018-05-29T20:29:31.860Z,18.40
2018-05-29T20:31:59.932Z,20.27
2018-05-29T20:34:27.478Z,19.60
2018-05-29T20:36:55.129Z,18.13
2018-05-29T20:39:22.696Z,19.67
2018-05-29T20:41:50.247Z,16.37
2018-05-29T20:44:18.587Z,16.87
2018-05-29T20:46:46.115Z,17.27
2018-05-29T20:49:14.788Z,16.90
2018-05-29T20:51:42.339Z,18.30
2018-05-29T20:54:10.647Z,17.77
2018-05-29T20:56:38.228Z,17.43
2018-05-29T20:59:05.789Z,17.77
2018-05-29T21:01:33.331Z,18.17
2018-05-29T21:04:00.936Z,18.87
2018-05-29T21:06:28.930Z,20.03
2018-05-29T21:08:57.369Z,18.93
2018-05-29T21:11:24.931Z,19.47
2018-05-29T21:13:53.409Z,19.90
2018-05-29T21:16:21.643Z,19.00
2018-05-29T21:18:49.238Z,18.60
2018-05-29T21:21:16.781Z,18.97
2018-05-29T21:23:44.949Z,17.37
2018-05-29T21:26:12.677Z,19.90
2018-05-29T21:28:41.004Z,18.00
2018-05-29T21:31:08.583Z,19.03
2018-05-29T21:33:36.298Z,18.60
2018-05-29T21:36:03.861Z,18.97
2018-05-29T21:38:32.165Z,18.63
2018-05-29T21:40:59.701Z,19.70
2018-05-29T21:43:27.390Z,21.13
2018-05-29T21:45:54.923Z,19.20
2018-05-29T21:48:22.702Z,19.70
2018-05-29T21:50:50.253Z,20.17
2018-05-29T21:53:17.820Z,19.43
2018-05-29T21:55:48.338Z,18.70
2018-05-29T21:58:16.023Z,19.87
2018-05-29T22:00:44.928Z,20.30
2018-05-29T22:03:12.468Z,19.53
2018-05-29T22:05:40.020Z,18.63
2018-05-29T22:08:07.596Z,19.50
2018-05-29T22:10:35.144Z,17.47
2018-05-29T22:13:02.719Z,18.83
2018-05-29T22:15:31.052Z,18.13
2018-05-29T22:17:58.844Z,18.07
2018-05-29T22:20:26.451Z,16.83
2018-05-29T22:22:54.000Z,17.10
2018-05-29T22:25:22.076Z,16.43
2018-05-29T22:27:49.641Z,18.10
2018-05-29T22:30:17.189Z,17.70
2018-05-29T22:32:45.575Z,16.90
2018-05-29T22:35:13.547Z,16.73
2018-05-29T22:37:41.089Z,15.23
2018-05-29T22:40:08.691Z,18.00
2018-05-29T22:42:37.101Z,16.20
2018-05-29T22:45:04.639Z,16.27
2018-05-29T22:47:32.955Z,16.30
2018-05-29T22:50:00.768Z,15.80
2018-05-29T22:52:28.692Z,15.70
2018-05-29T22:54:56.277Z,15.73
2018-05-29T22:57:23.846Z,16.30
2018-05-29T22:59:52.119Z,16.80
2018-05-29T23:02:19.669Z,16.53
2018-05-29T23:04:47.210Z,18.37
2018-05-29T23:07:15.618Z,17.97
2018-05-29T23:09:43.181Z,18.87
2018-05-29T23:12:10.741Z,16.97
2018-05-29T23:14:38.280Z,18.93
2018-05-29T23:17:05.829Z,19.40
2018-05-29T23:19:33.367Z,19.83
2018-05-29T23:22:00.955Z,19.03
2018-05-29T23:24:28.628Z,18.27
2018-05-29T23:26:56.167Z,20.13
2018-05-29T23:29:24.764Z,19.40
2018-05-29T23:31:52.817Z,19.80
2018-05-29T23:34:20.357Z,18.57
2018-05-29T23:36:48.724Z,19.27
2018-05-29T23:39:16.262Z,20.20
2018-05-29T23:41:44.532Z,19.90
2018-05-29T23:44:12.974Z,21.40
2018-05-29T23:46:40.503Z,19.27
2018-05-29T23:49:08.839Z,21.40
2018-05-29T23:51:37.085Z,21.20
2018-05-29T23:54:04.672Z,19.60
2018-05-29T23:56:32.222Z,22.30
2018-05-29T23:58:59.765Z,22.80
